createdAt,value
2023-01-30T00:09:35.509Z,15.00
2023-01-30T00:19:38.979Z,15.10
2023-01-30T00:29:47.365Z,15.10
2023-01-30T00:39:57.989Z,14.90
2023-01-30T00:50:08.017Z,14.50
2023-01-30T01:00:13.702Z,14.60
2023-01-30T01:10:17.686Z,13.90
2023-01-30T01:20:22.980Z,13.30
2023-01-30T01:30:27.964Z,13.30
2023-01-30T01:40:52.056Z,13.20
2023-01-30T01:51:08.397Z,13.70
2023-01-30T02:01:12.219Z,13.50
2023-01-30T02:11:29.838Z,14.10
2023-01-30T02:22:07.672Z,15.00
2023-01-30T02:32:31.523Z,14.20
2023-01-30T02:42:45.544Z,13.90
2023-01-30T02:52:49.145Z,13.10
2023-01-30T03:03:16.144Z,13.10
2023-01-30T03:13:57.423Z,12.40
2023-01-30T03:24:01.057Z,11.90
2023-01-30T03:34:04.844Z,12.20
2023-01-30T03:44:12.672Z,12.30
2023-01-30T03:54:18.019Z,12.30
2023-01-30T04:04:21.970Z,12.50
2023-01-30T04:14:29.675Z,13.40
2023-01-30T04:24:53.236Z,13.00
2023-01-30T04:34:59.269Z,13.90
2023-01-30T04:45:04.963Z,13.80
2023-01-30T04:55:09.204Z,13.40
2023-01-30T05:05:14.961Z,12.70
2023-01-30T05:15:19.230Z,12.10
2023-01-30T05:25:24.577Z,12.10
2023-01-30T05:35:29.720Z,11.80
2023-01-30T05:45:33.361Z,11.80
2023-01-30T05:55:38.748Z,10.90
2023-01-30T06:05:42.366Z,10.60
2023-01-30T06:15:46.109Z,10.70
2023-01-30T06:25:53.376Z,10.30
2023-01-30T06:35:56.946Z,10.70
2023-01-30T06:46:06.460Z,10.40
2023-01-30T06:56:10.124Z,10.40
2023-01-30T07:06:13.689Z,10.80
2023-01-30T07:16:21.120Z,11.20
2023-01-30T07:26:25.751Z,10.70
2023-01-30T07:36:35.013Z,11.70
2023-01-30T07:46:41.174Z,11.40
2023-01-30T07:56:44.874Z,11.70
2023-01-30T08:06:49.899Z,12.40
2023-01-30T08:21:04.718Z,14.30
2023-01-30T08:31:14.387Z,14.20
2023-01-30T08:41:19.519Z,13.90
2023-01-30T08:51:26.749Z,12.00
2023-01-30T09:01:30.497Z,11.00
2023-01-30T09:11:34.179Z,11.40
2023-01-30T09:21:41.645Z,10.10
2023-01-30T09:31:45.267Z,11.30
2023-01-30T09:41:57.332Z,9.80
2023-01-30T09:52:05.124Z,9.50
2023-01-30T10:02:32.858Z,10.70
2023-01-30T10:12:53.017Z,10.00
2023-01-30T10:23:16.671Z,8.90
2023-01-30T10:33:55.566Z,8.60
2023-01-30T10:44:15.152Z,9.00
2023-01-30T10:54:43.591Z,8.80
2023-01-30T11:04:58.475Z,10.10
2023-01-30T11:15:05.085Z,10.50
2023-01-30T11:37:36.583Z,12.10
2023-01-30T11:48:31.628Z,12.40
2023-01-30T11:58:40.039Z,12.10
2023-01-30T12:08:44.906Z,14.40
2023-01-30T12:19:30.503Z,13.90
2023-01-30T12:29:50.745Z,13.10
2023-01-30T12:40:16.656Z,13.20
2023-01-30T12:50:25.175Z,12.80
2023-01-30T13:01:07.753Z,15.90
2023-01-30T13:11:29.313Z,15.60
2023-01-30T13:21:43.394Z,16.90
2023-01-30T13:31:55.233Z,14.70
2023-01-30T13:42:07.381Z,13.40
2023-01-30T13:52:33.948Z,14.80
2023-01-30T14:03:10.132Z,13.30
2023-01-30T14:13:18.957Z,14.70
2023-01-30T14:23:26.133Z,12.70
2023-01-30T14:33:47.951Z,11.90
2023-01-30T14:43:54.745Z,11.90
2023-01-30T14:54:00.671Z,10.40
2023-01-30T15:04:05.249Z,10.80
2023-01-30T15:14:23.413Z,10.20
2023-01-30T15:25:04.636Z,12.50
2023-01-30T15:35:17.444Z,14.20
2023-01-30T15:45:49.184Z,16.40
2023-01-30T15:55:54.532Z,14.00
2023-01-30T16:06:00.505Z,12.50
2023-01-30T16:16:13.079Z,12.80
2023-01-30T16:26:18.713Z,12.00
2023-01-30T16:36:24.555Z,12.40
2023-01-30T16:47:00.608Z,13.80
2023-01-30T16:57:04.959Z,14.00
2023-01-30T17:07:35.406Z,13.50
2023-01-30T17:17:40.004Z,14.50
2023-01-30T17:27:43.838Z,14.20
2023-01-30T17:37:59.577Z,17.30
2023-01-30T17:48:09.124Z,15.80
2023-01-30T18:10:05.385Z,12.70
2023-01-30T18:20:11.760Z,12.60
2023-01-30T18:30:17.978Z,10.20
2023-01-30T18:40:24.268Z,8.80
2023-01-30T18:50:28.655Z,7.30
2023-01-30T19:00:32.439Z,7.30
2023-01-30T19:10:36.146Z,7.10
2023-01-30T19:20:39.746Z,8.70
2023-01-30T19:30:43.399Z,7.80
2023-01-30T19:40:48.164Z,6.60
2023-01-30T19:50:53.407Z,7.30
2023-01-30T20:01:08.801Z,7.40
2023-01-30T20:11:15.122Z,8.50
2023-01-30T20:21:22.086Z,7.50
2023-01-30T20:31:27.734Z,7.70
2023-01-30T20:42:49.155Z,6.60
2023-01-30T20:52:52.892Z,6.70
2023-01-30T21:02:58.126Z,5.30
2023-01-30T21:13:05.531Z,5.40
2023-01-30T21:23:12.978Z,5.20
2023-01-30T21:33:18.631Z,6.00
2023-01-30T21:43:22.433Z,4.90
2023-01-30T21:53:26.998Z,6.00
2023-01-30T22:03:30.758Z,5.00
2023-01-30T22:13:36.488Z,5.70
2023-01-30T22:23:45.466Z,4.20
2023-01-30T22:33:55.236Z,4.10
2023-01-30T22:44:00.188Z,4.00
2023-01-30T22:54:09.592Z,3.80
2023-01-30T23:04:18.895Z,3.90
2023-01-30T23:14:24.252Z,3.70
2023-01-30T23:24:27.955Z,4.00
2023-01-30T23:34:32.753Z,3.80
2023-01-30T23:44:36.504Z,4.10
2023-01-30T23:54:42.128Z,3.60
